Time;durP1;ratioP1;P1;durP2;ratioP2;P2;SDS_P1;SDS_P2;PMS_P1;PMS_P2;Temp;Humidity;BMP_temperature;BMP_pressure;BME280_temperature;BME280_humidity;BME280_pressure;Samples;Min_cycle;Max_cycle;Signal;HPM_P1;HPM_P2
2021/09/19 00:01:35;;;;;;;3.70;3.28;;;;;;;;;;4829402;29;35738;-65
2021/09/19 00:04:02;;;;;;;3.75;2.75;;;;;;;;;;4842176;29;32705;-65
2021/09/19 00:06:29;;;;;;;3.55;3.15;;;;;;;;;;4842146;29;32446;-65
2021/09/19 00:08:55;;;;;;;3.33;2.92;;;;;;;;;;4827376;29;32708;-63
2021/09/19 00:11:22;;;;;;;3.80;2.88;;;;;;;;;;4827923;29;32613;-65
2021/09/19 00:13:49;;;;;;;3.50;2.80;;;;;;;;;;4827435;29;34713;-64
2021/09/19 00:16:17;;;;;;;3.17;2.83;;;;;;;;;;4827392;29;32554;-63
2021/09/19 00:18:45;;;;;;;3.00;2.70;;;;;;;;;;4827992;29;32763;-62
2021/09/19 00:21:12;;;;;;;2.80;2.50;;;;;;;;;;4827797;29;32492;-64
2021/09/19 00:23:39;;;;;;;4.38;3.13;;;;;;;;;;4827754;29;34685;-63
2021/09/19 00:26:05;;;;;;;3.80;3.13;;;;;;;;;;4828329;29;32503;-63
2021/09/19 00:28:32;;;;;;;5.45;3.08;;;;;;;;;;4828429;29;32171;-64
2021/09/19 00:30:58;;;;;;;4.70;3.67;;;;;;;;;;4827252;29;32394;-64
2021/09/19 00:33:24;;;;;;;3.97;2.60;;;;;;;;;;4827402;29;32690;-64
2021/09/19 00:35:52;;;;;;;3.35;2.83;;;;;;;;;;4830919;29;34286;-64
2021/09/19 00:38:19;;;;;;;3.97;2.97;;;;;;;;;;4841829;29;33065;-65
2021/09/19 00:40:45;;;;;;;3.15;2.75;;;;;;;;;;4846286;29;32305;-64
2021/09/19 00:43:12;;;;;;;4.18;2.95;;;;;;;;;;4845612;29;32479;-64
2021/09/19 00:45:38;;;;;;;3.45;2.85;;;;;;;;;;4845876;29;34034;-64
2021/09/19 00:48:05;;;;;;;3.63;2.53;;;;;;;;;;4842308;29;32387;-66
2021/09/19 00:50:31;;;;;;;3.05;2.75;;;;;;;;;;4845815;29;32668;-64
2021/09/19 00:53:00;;;;;;;4.00;2.83;;;;;;;;;;4845600;29;33671;-64
2021/09/19 00:55:27;;;;;;;4.00;3.08;;;;;;;;;;4848697;29;32369;-63
2021/09/19 00:57:55;;;;;;;3.80;3.47;;;;;;;;;;4838950;29;35710;-64
2021/09/19 01:00:25;;;;;;;4.43;2.90;;;;;;;;;;4847932;29;32772;-64
2021/09/19 01:02:53;;;;;;;3.05;2.75;;;;;;;;;;4849757;29;32438;-63
2021/09/19 01:05:20;;;;;;;4.60;2.65;;;;;;;;;;4848959;29;32779;-66
2021/09/19 01:07:48;;;;;;;3.45;2.88;;;;;;;;;;4848543;29;34715;-64
2021/09/19 01:10:19;;;;;;;4.68;3.00;;;;;;;;;;4847982;29;32432;-63
2021/09/19 01:12:46;;;;;;;3.47;3.10;;;;;;;;;;4810905;29;32491;-64
2021/09/19 01:15:14;;;;;;;3.85;2.70;;;;;;;;;;4812040;29;32508;-64
2021/09/19 01:17:41;;;;;;;3.90;3.03;;;;;;;;;;4811306;29;32311;-64
2021/09/19 01:20:13;;;;;;;4.03;3.60;;;;;;;;;;4811832;29;35683;-64
2021/09/19 01:22:42;;;;;;;3.20;2.78;;;;;;;;;;4815912;29;32803;-64
2021/09/19 01:25:12;;;;;;;3.25;2.75;;;;;;;;;;4811077;29;32263;-64
2021/09/19 01:27:39;;;;;;;3.20;2.53;;;;;;;;;;4811530;29;32476;-64
2021/09/19 01:30:09;;;;;;;3.42;2.97;;;;;;;;;;4810813;29;34632;-65
2021/09/19 01:32:39;;;;;;;3.25;2.78;;;;;;;;;;4810856;29;32403;-66
2021/09/19 01:35:08;;;;;;;3.47;2.70;;;;;;;;;;4811854;29;32245;-64
2021/09/19 01:37:35;;;;;;;4.00;2.70;;;;;;;;;;4805372;29;32432;-64
2021/09/19 01:40:03;;;;;;;3.33;2.75;;;;;;;;;;4832036;29;34319;-64
2021/09/19 01:42:31;;;;;;;4.15;2.90;;;;;;;;;;4829262;29;34655;-64
2021/09/19 01:44:58;;;;;;;4.38;3.97;;;;;;;;;;4830670;29;32628;-62
2021/09/19 01:47:24;;;;;;;;;;;;;;;;;;4775441;29;32409;-63
2021/09/19 01:49:51;;;;;;;3.33;2.75;;;;;;;;;;4774133;29;32454;-63
2021/09/19 01:52:20;;;;;;;3.97;3.13;;;;;;;;;;4756711;29;34242;-63
2021/09/19 01:54:46;;;;;;;3.58;2.92;;;;;;;;;;4755533;29;32392;-66
2021/09/19 01:57:17;;;;;;;3.50;2.50;;;;;;;;;;4761434;29;32643;-63
2021/09/19 01:59:49;;;;;;;3.42;2.90;;;;;;;;;;4775259;29;32346;-65
2021/09/19 02:02:15;;;;;;;3.45;3.15;;;;;;;;;;4774201;29;32763;-64
2021/09/19 02:04:42;;;;;;;4.15;2.63;;;;;;;;;;4774171;29;35276;-63
2021/09/19 02:07:08;;;;;;;4.13;2.72;;;;;;;;;;4775532;29;32331;-64
2021/09/19 02:09:35;;;;;;;4.00;3.60;;;;;;;;;;4767992;29;33690;-64
2021/09/19 02:12:01;;;;;;;3.83;3.30;;;;;;;;;;4794744;29;32571;-64
2021/09/19 02:14:27;;;;;;;4.63;2.75;;;;;;;;;;4810755;29;35199;-64
2021/09/19 02:16:55;;;;;;;4.72;2.75;;;;;;;;;;4810745;29;32722;-64
2021/09/19 02:19:22;;;;;;;3.40;2.90;;;;;;;;;;4810796;29;32504;-64
2021/09/19 02:21:48;;;;;;;5.28;3.08;;;;;;;;;;4810357;29;32539;-64
2021/09/19 02:24:15;;;;;;;3.78;3.08;;;;;;;;;;4812728;29;32617;-65
2021/09/19 02:26:41;;;;;;;3.08;2.78;;;;;;;;;;4847382;29;34170;-64
2021/09/19 02:29:08;;;;;;;3.50;2.83;;;;;;;;;;4808071;29;32313;-64
2021/09/19 02:31:34;;;;;;;4.72;2.92;;;;;;;;;;4816721;29;32417;-66
2021/09/19 02:34:02;;;;;;;4.55;3.00;;;;;;;;;;4846447;29;32498;-64
2021/09/19 02:36:29;;;;;;;5.07;2.65;;;;;;;;;;4847503;29;33893;-64
2021/09/19 02:38:55;;;;;;;3.30;2.75;;;;;;;;;;4847767;29;32468;-63
2021/09/19 02:41:23;;;;;;;3.08;2.78;;;;;;;;;;4848136;29;32322;-64
2021/09/19 02:43:49;;;;;;;2.90;2.60;;;;;;;;;;4847331;29;32188;-64
2021/09/19 02:46:16;;;;;;;3.65;2.60;;;;;;;;;;4847633;29;32490;-64
2021/09/19 02:48:43;;;;;;;4.13;2.72;;;;;;;;;;4848338;29;34185;-64
2021/09/19 02:51:10;;;;;;;3.15;2.70;;;;;;;;;;4847985;29;32503;-64
2021/09/19 02:53:37;;;;;;;3.47;3.17;;;;;;;;;;4860830;29;32347;-64
2021/09/19 02:56:04;;;;;;;3.08;2.55;;;;;;;;;;4866601;29;32356;-66
2021/09/19 02:58:30;;;;;;;3.30;2.65;;;;;;;;;;4856876;29;34674;-64
2021/09/19 03:00:57;;;;;;;3.92;3.13;;;;;;;;;;4847191;29;32468;-64
2021/09/19 03:03:23;;;;;;;3.00;2.70;;;;;;;;;;4846637;29;32543;-64
2021/09/19 03:05:50;;;;;;;3.58;3.00;;;;;;;;;;4843753;29;33897;-65
2021/09/19 03:08:18;;;;;;;4.53;2.88;;;;;;;;;;4865730;29;32842;-64
2021/09/19 03:10:44;;;;;;;3.65;2.90;;;;;;;;;;4865960;29;34057;-64
2021/09/19 03:13:11;;;;;;;2.60;2.30;;;;;;;;;;4866239;29;32408;-64
2021/09/19 03:15:37;;;;;;;3.60;3.03;;;;;;;;;;4865223;29;32503;-65
2021/09/19 03:18:05;;;;;;;4.72;2.78;;;;;;;;;;4865768;29;32254;-64
2021/09/19 03:20:31;;;;;;;3.25;2.55;;;;;;;;;;4864108;29;35713;-64
2021/09/19 03:22:58;;;;;;;3.22;2.92;;;;;;;;;;4856352;29;32480;-64
2021/09/19 03:25:26;;;;;;;4.20;3.75;;;;;;;;;;4846711;29;32398;-65
2021/09/19 03:27:52;;;;;;;3.33;3.03;;;;;;;;;;4846193;29;32687;-64
2021/09/19 03:30:19;;;;;;;3.55;2.53;;;;;;;;;;4847302;29;32388;-66
2021/09/19 03:32:46;;;;;;;4.00;2.50;;;;;;;;;;4821951;29;32325;-66
2021/09/19 03:35:13;;;;;;;;;;;;;;;;;;4619409;29;32633;-63
2021/09/19 03:37:40;;;;;;;3.83;2.67;;;;;;;;;;4851611;29;32574;-66
2021/09/19 03:40:10;;;;;;;3.42;2.97;;;;;;;;;;4847290;29;32679;-64
2021/09/19 03:42:38;;;;;;;5.03;2.50;;;;;;;;;;4846776;29;34812;-64
2021/09/19 03:45:06;;;;;;;3.88;2.85;;;;;;;;;;4846568;29;32434;-64
2021/09/19 03:47:34;;;;;;;2.90;2.55;;;;;;;;;;4846291;29;32405;-64
2021/09/19 03:50:00;;;;;;;3.05;2.67;;;;;;;;;;4842326;29;32507;-64
2021/09/19 03:52:27;;;;;;;3.28;2.72;;;;;;;;;;4827478;29;32413;-65
2021/09/19 03:54:53;;;;;;;3.08;2.78;;;;;;;;;;4822987;29;32594;-62
2021/09/19 03:57:20;;;;;;;3.05;2.42;;;;;;;;;;4828157;29;32548;-64
2021/09/19 03:59:47;;;;;;;3.63;3.03;;;;;;;;;;4827350;29;32146;-63
2021/09/19 04:02:14;;;;;;;3.88;2.60;;;;;;;;;;4828669;29;32574;-63
2021/09/19 04:04:40;;;;;;;5.68;2.95;;;;;;;;;;4826939;29;34738;-63
2021/09/19 04:07:07;;;;;;;3.13;2.63;;;;;;;;;;4835143;29;32580;-66
2021/09/19 04:09:34;;;;;;;3.80;2.50;;;;;;;;;;4842083;29;32379;-63
2021/09/19 04:12:01;;;;;;;2.88;2.30;;;;;;;;;;4846044;29;32633;-62
2021/09/19 04:14:27;;;;;;;3.13;2.72;;;;;;;;;;4806816;29;32703;-63
2021/09/19 04:16:55;;;;;;;4.22;2.50;;;;;;;;;;4857255;29;32701;-64
2021/09/19 04:19:22;;;;;;;5.15;2.90;;;;;;;;;;4863906;29;32153;-65
2021/09/19 04:21:48;;;;;;;3.55;2.78;;;;;;;;;;4858199;29;32232;-63
2021/09/19 04:24:15;;;;;;;3.67;2.97;;;;;;;;;;4861571;29;32452;-65
2021/09/19 04:26:41;;;;;;;4.97;3.38;;;;;;;;;;4848319;29;34573;-64
2021/09/19 04:29:08;;;;;;;3.78;3.00;;;;;;;;;;4866600;29;32351;-64
2021/09/19 04:31:34;;;;;;;3.35;3.05;;;;;;;;;;4842498;29;32550;-63
2021/09/19 04:34:02;;;;;;;3.15;2.85;;;;;;;;;;4830714;29;32273;-64
2021/09/19 04:36:28;;;;;;;3.67;3.00;;;;;;;;;;4837141;29;32428;-64
2021/09/19 04:38:55;;;;;;;3.95;3.50;;;;;;;;;;4849015;29;32392;-64
2021/09/19 04:41:21;;;;;;;3.42;2.70;;;;;;;;;;4848532;29;32562;-64
2021/09/19 04:43:48;;;;;;;4.20;2.80;;;;;;;;;;4849496;29;32611;-65
2021/09/19 04:46:14;;;;;;;3.95;2.60;;;;;;;;;;4844783;29;32489;-66
2021/09/19 04:48:41;;;;;;;3.10;2.50;;;;;;;;;;4834777;29;34039;-64
2021/09/19 04:51:09;;;;;;;4.28;3.45;;;;;;;;;;4848176;29;32494;-64
2021/09/19 04:53:35;;;;;;;3.80;2.80;;;;;;;;;;4832965;29;32694;-64
2021/09/19 04:56:02;;;;;;;3.28;2.50;;;;;;;;;;4846907;29;32719;-64
2021/09/19 04:58:28;;;;;;;3.75;2.55;;;;;;;;;;4848642;29;32437;-66
2021/09/19 05:00:55;;;;;;;4.05;2.70;;;;;;;;;;4848308;29;32516;-64
2021/09/19 05:03:21;;;;;;;4.07;2.80;;;;;;;;;;4847732;29;32323;-65
2021/09/19 05:05:47;;;;;;;5.10;4.13;;;;;;;;;;4847835;29;32926;-64
2021/09/19 05:08:16;;;;;;;3.45;2.60;;;;;;;;;;4848290;29;32614;-66
2021/09/19 05:10:43;;;;;;;3.42;2.85;;;;;;;;;;4848450;29;35816;-64
2021/09/19 05:13:09;;;;;;;3.88;2.47;;;;;;;;;;4846777;29;32699;-64
2021/09/19 05:15:36;;;;;;;4.97;3.17;;;;;;;;;;4846207;29;32412;-64
2021/09/19 05:18:02;;;;;;;3.50;3.20;;;;;;;;;;4842418;29;32949;-64
2021/09/19 05:20:29;;;;;;;3.25;2.83;;;;;;;;;;4843133;29;32411;-63
2021/09/19 05:22:55;;;;;;;3.25;2.90;;;;;;;;;;4832085;29;32340;-65
2021/09/19 05:25:23;;;;;;;4.15;3.75;;;;;;;;;;4847674;29;32522;-66
2021/09/19 05:27:52;;;;;;;4.78;3.20;;;;;;;;;;4846276;29;32695;-66
2021/09/19 05:30:19;;;;;;;5.05;3.42;;;;;;;;;;4847469;29;32127;-64
2021/09/19 05:32:46;;;;;;;3.60;2.80;;;;;;;;;;4846865;29;34730;-64
2021/09/19 05:35:12;;;;;;;3.70;3.10;;;;;;;;;;4847594;29;32443;-64
2021/09/19 05:37:38;;;;;;;5.28;3.63;;;;;;;;;;4848569;29;32516;-64
2021/09/19 05:40:08;;;;;;;3.95;3.20;;;;;;;;;;4848124;29;32490;-65
2021/09/19 05:42:36;;;;;;;4.75;3.08;;;;;;;;;;4847754;29;34786;-65
2021/09/19 05:45:03;;;;;;;4.18;3.30;;;;;;;;;;4835967;29;32401;-65
2021/09/19 05:47:30;;;;;;;3.53;3.15;;;;;;;;;;4835821;29;32905;-64
2021/09/19 05:49:56;;;;;;;4.07;3.20;;;;;;;;;;4848056;29;32575;-64
2021/09/19 05:52:23;;;;;;;4.47;3.53;;;;;;;;;;4846160;29;32711;-63
2021/09/19 05:54:50;;;;;;;3.88;3.47;;;;;;;;;;4846346;29;35298;-64
2021/09/19 05:57:16;;;;;;;3.75;3.22;;;;;;;;;;4846870;29;32573;-64
2021/09/19 05:59:44;;;;;;;6.50;3.30;;;;;;;;;;4846962;29;33048;-63
2021/09/19 06:02:11;;;;;;;3.38;2.72;;;;;;;;;;4851720;29;32241;-63
2021/09/19 06:04:37;;;;;;;3.45;2.95;;;;;;;;;;4834917;29;34673;-65
2021/09/19 06:07:04;;;;;;;3.53;3.10;;;;;;;;;;4715595;29;32611;-64
2021/09/19 06:09:30;;;;;;;2.65;2.45;;;;;;;;;;4847356;29;32643;-65
2021/09/19 06:11:56;;;;;;;3.45;2.60;;;;;;;;;;4845725;29;32464;-64
2021/09/19 06:14:23;;;;;;;3.13;2.60;;;;;;;;;;4847531;29;32205;-66
2021/09/19 06:16:51;;;;;;;3.63;2.55;;;;;;;;;;4850720;29;35705;-67
2021/09/19 06:19:17;;;;;;;3.22;2.88;;;;;;;;;;4866020;29;33241;-64
2021/09/19 06:21:44;;;;;;;3.50;2.85;;;;;;;;;;4860449;29;32477;-64
2021/09/19 06:24:10;;;;;;;3.03;2.72;;;;;;;;;;4866133;29;32640;-63
2021/09/19 06:26:37;;;;;;;3.13;2.78;;;;;;;;;;4861542;29;34118;-64
2021/09/19 06:29:03;;;;;;;4.32;3.92;;;;;;;;;;4866168;29;33301;-64
2021/09/19 06:31:30;;;;;;;3.40;2.72;;;;;;;;;;4865577;29;32417;-63
2021/09/19 06:33:58;;;;;;;2.90;2.55;;;;;;;;;;4865263;29;33506;-65
2021/09/19 06:36:25;;;;;;;3.08;2.65;;;;;;;;;;4829317;29;32580;-65
2021/09/19 06:38:51;;;;;;;4.43;2.45;;;;;;;;;;4828314;29;34686;-64
2021/09/19 06:41:17;;;;;;;3.85;2.67;;;;;;;;;;4828834;29;32398;-63
2021/09/19 06:43:44;;;;;;;3.30;2.50;;;;;;;;;;4827172;29;32364;-66
2021/09/19 06:46:11;;;;;;;2.72;2.13;;;;;;;;;;4828938;29;31922;-63
2021/09/19 06:48:37;;;;;;;2.70;2.50;;;;;;;;;;4828142;29;34170;-65
2021/09/19 06:51:05;;;;;;;2.95;2.65;;;;;;;;;;4827322;29;32118;-63
2021/09/19 06:53:31;;;;;;;3.13;2.38;;;;;;;;;;4803715;29;32115;-63
2021/09/19 06:55:58;;;;;;;2.47;2.20;;;;;;;;;;4828990;29;32542;-62
2021/09/19 06:58:24;;;;;;;2.92;2.63;;;;;;;;;;4828341;29;32340;-66
2021/09/19 07:00:51;;;;;;;2.78;2.42;;;;;;;;;;4851504;29;35321;-66
2021/09/19 07:03:17;;;;;;;3.05;2.30;;;;;;;;;;4865590;29;32477;-63
2021/09/19 07:05:44;;;;;;;5.45;2.60;;;;;;;;;;4865666;29;32553;-64
2021/09/19 07:08:12;;;;;;;3.17;2.53;;;;;;;;;;4866170;29;32167;-64
2021/09/19 07:10:38;;;;;;;3.22;2.55;;;;;;;;;;4864354;29;36195;-63
2021/09/19 07:13:04;;;;;;;2.85;2.20;;;;;;;;;;4865968;29;32502;-63
2021/09/19 07:15:31;;;;;;;2.65;2.40;;;;;;;;;;4812964;29;32563;-65
2021/09/19 07:17:57;;;;;;;3.35;3.05;;;;;;;;;;4865201;29;32422;-64
2021/09/19 07:20:24;;;;;;;4.07;2.60;;;;;;;;;;4865063;29;32436;-63
2021/09/19 07:22:50;;;;;;;2.65;2.25;;;;;;;;;;4864642;29;34125;-65
2021/09/19 07:25:18;;;;;;;3.35;2.47;;;;;;;;;;4864942;29;32472;-63
2021/09/19 07:27:45;;;;;;;3.90;2.20;;;;;;;;;;4864839;29;32608;-66
2021/09/19 07:30:13;;;;;;;3.53;2.33;;;;;;;;;;4856947;29;32240;-66
2021/09/19 07:32:40;;;;;;;2.55;2.33;;;;;;;;;;4847061;29;34165;-65
2021/09/19 07:35:08;;;;;;;3.88;2.53;;;;;;;;;;4847504;29;32491;-64
2021/09/19 07:37:37;;;;;;;6.47;2.42;;;;;;;;;;4842582;29;32572;-64
2021/09/19 07:40:06;;;;;;;3.15;2.40;;;;;;;;;;4861534;29;32450;-64
2021/09/19 07:42:34;;;;;;;3.30;2.40;;;;;;;;;;4863571;29;32380;-63
2021/09/19 07:45:02;;;;;;;2.95;2.42;;;;;;;;;;4862455;29;34040;-64
2021/09/19 07:47:31;;;;;;;2.30;2.10;;;;;;;;;;4850690;29;32681;-65
2021/09/19 07:49:58;;;;;;;2.65;2.28;;;;;;;;;;4847329;29;32499;-64
2021/09/19 07:52:25;;;;;;;3.67;2.28;;;;;;;;;;4846700;29;32440;-64
2021/09/19 07:54:54;;;;;;;3.10;2.15;;;;;;;;;;4831198;29;35304;-66
2021/09/19 07:57:21;;;;;;;2.50;2.25;;;;;;;;;;4847017;29;32841;-64
2021/09/19 07:59:49;;;;;;;2.83;2.22;;;;;;;;;;4846788;29;32506;-64
2021/09/19 08:02:15;;;;;;;3.70;2.92;;;;;;;;;;4846721;29;32246;-64
2021/09/19 08:04:42;;;;;;;2.28;2.08;;;;;;;;;;4865429;29;32661;-66
2021/09/19 08:07:08;;;;;;;3.58;2.22;;;;;;;;;;4864296;29;34421;-66
2021/09/19 08:09:35;;;;;;;4.53;2.40;;;;;;;;;;4863888;29;32112;-66
2021/09/19 08:12:01;;;;;;;2.70;2.33;;;;;;;;;;4864932;29;32249;-68
2021/09/19 08:14:28;;;;;;;3.72;2.55;;;;;;;;;;4837886;29;32541;-66
2021/09/19 08:16:57;;;;;;;3.15;2.45;;;;;;;;;;4863818;29;35592;-63
2021/09/19 08:19:24;;;;;;;3.72;2.63;;;;;;;;;;4864696;29;32352;-63
2021/09/19 08:21:50;;;;;;;3.83;2.90;;;;;;;;;;4856112;29;32587;-64
2021/09/19 08:24:17;;;;;;;3.65;2.20;;;;;;;;;;4845978;29;32441;-63
2021/09/19 08:26:44;;;;;;;3.67;2.60;;;;;;;;;;4566043;29;32639;-63
2021/09/19 08:29:12;;;;;;;3.03;2.47;;;;;;;;;;4844974;29;35637;-63
2021/09/19 08:31:38;;;;;;;3.58;2.70;;;;;;;;;;4845534;29;32434;-63
2021/09/19 08:34:08;;;;;;;4.53;2.97;;;;;;;;;;4845908;29;32311;-65
2021/09/19 08:36:35;;;;;;;3.42;2.92;;;;;;;;;;4842493;29;32220;-64
2021/09/19 08:39:03;;;;;;;3.17;2.83;;;;;;;;;;4864049;29;34128;-64
2021/09/19 08:41:30;;;;;;;5.53;3.28;;;;;;;;;;4847195;29;32471;-65
2021/09/19 08:43:57;;;;;;;5.18;2.45;;;;;;;;;;4863372;29;32643;-64
2021/09/19 08:46:25;;;;;;;4.70;2.40;;;;;;;;;;4860028;29;32442;-65
2021/09/19 08:48:52;;;;;;;3.85;2.75;;;;;;;;;;4863843;29;32732;-65
2021/09/19 08:51:20;;;;;;;3.03;2.40;;;;;;;;;;4864835;29;35840;-65
2021/09/19 08:53:46;;;;;;;2.65;2.33;;;;;;;;;;4864318;29;32484;-64
2021/09/19 08:56:22;;;;;;;4.88;3.72;;;;;;;;;;4864787;29;32649;-66
2021/09/19 08:58:48;;;;;;;4.13;2.80;;;;;;;;;;4863774;29;32475;-67
2021/09/19 09:01:15;;;;;;;4.13;2.65;;;;;;;;;;4863938;29;34541;-66
2021/09/19 09:03:41;;;;;;;3.22;2.72;;;;;;;;;;4863131;29;32431;-65
2021/09/19 09:06:09;;;;;;;3.47;2.95;;;;;;;;;;4863256;29;32306;-65
2021/09/19 09:08:37;;;;;;;3.33;2.85;;;;;;;;;;4842529;29;32577;-65
2021/09/19 09:11:05;;;;;;;4.22;2.72;;;;;;;;;;4850801;29;32841;-67
2021/09/19 09:13:36;;;;;;;3.90;2.72;;;;;;;;;;4862895;29;35101;-66
2021/09/19 09:16:05;;;;;;;3.13;2.60;;;;;;;;;;4847245;29;32590;-64
2021/09/19 09:18:37;;;;;;;3.58;2.80;;;;;;;;;;4839059;29;32697;-63
2021/09/19 09:21:06;;;;;;;3.83;3.22;;;;;;;;;;4866881;29;32228;-65
2021/09/19 09:23:38;;;;;;;3.97;2.60;;;;;;;;;;4867115;29;34212;-65
2021/09/19 09:26:20;;;;;;;3.20;2.45;;;;;;;;;;4867306;29;32541;-67
2021/09/19 09:28:51;;;;;;;4.07;2.63;;;;;;;;;;4866870;29;32471;-65
2021/09/19 09:31:31;;;;;;;3.40;2.67;;;;;;;;;;4866113;29;32569;-65
2021/09/19 09:34:04;;;;;;;3.58;2.70;;;;;;;;;;4864247;29;32380;-65
2021/09/19 09:36:37;;;;;;;3.30;2.85;;;;;;;;;;4848466;29;34773;-65
2021/09/19 09:39:24;;;;;;;4.28;2.75;;;;;;;;;;4848007;29;32589;-67
2021/09/19 09:41:52;;;;;;;4.20;2.58;;;;;;;;;;4848218;29;32324;-65
2021/09/19 09:44:27;;;;;;;3.83;2.83;;;;;;;;;;4848178;29;32384;-68
2021/09/19 09:46:53;;;;;;;2.80;2.25;;;;;;;;;;4847697;29;35865;-65
2021/09/19 09:49:23;;;;;;;3.70;2.92;;;;;;;;;;4843505;29;32489;-67
2021/09/19 09:51:49;;;;;;;4.50;2.80;;;;;;;;;;4867244;29;32348;-63
2021/09/19 09:54:17;;;;;;;3.63;2.53;;;;;;;;;;4863161;29;32488;-64
2021/09/19 09:56:46;;;;;;;3.45;2.80;;;;;;;;;;4861844;29;32698;-65
2021/09/19 09:59:15;;;;;;;4.68;3.20;;;;;;;;;;4866154;29;35093;-66
2021/09/19 10:01:42;;;;;;;4.57;3.85;;;;;;;;;;4865722;29;32666;-66
2021/09/19 10:04:09;;;;;;;4.28;3.88;;;;;;;;;;4863309;29;32536;-65
2021/09/19 10:06:36;;;;;;;4.68;2.88;;;;;;;;;;4860015;29;32500;-65
2021/09/19 10:09:02;;;;;;;4.43;3.03;;;;;;;;;;4855639;29;34012;-64
2021/09/19 10:11:30;;;;;;;3.63;2.83;;;;;;;;;;4858035;29;32584;-65
2021/09/19 10:13:57;;;;;;;3.38;2.58;;;;;;;;;;4858320;29;32295;-66
2021/09/19 10:16:23;;;;;;;3.65;3.10;;;;;;;;;;4742241;29;32565;-67
2021/09/19 10:18:50;;;;;;;3.72;2.92;;;;;;;;;;4865658;29;32471;-67
2021/09/19 10:21:22;;;;;;;4.03;2.88;;;;;;;;;;4865246;29;35392;-63
2021/09/19 10:23:49;;;;;;;4.20;3.60;;;;;;;;;;4866028;29;32227;-64
2021/09/19 10:26:22;;;;;;;3.25;2.63;;;;;;;;;;4866003;29;32175;-64
2021/09/19 10:28:54;;;;;;;4.25;3.20;;;;;;;;;;4866461;29;32471;-64
2021/09/19 10:31:28;;;;;;;4.65;2.90;;;;;;;;;;4865165;29;34094;-64
2021/09/19 10:34:00;;;;;;;4.13;3.72;;;;;;;;;;4866069;29;32369;-66
2021/09/19 10:36:38;;;;;;;3.53;2.70;;;;;;;;;;4864545;29;32599;-65
2021/09/19 10:39:32;;;;;;;5.30;3.03;;;;;;;;;;4865843;29;32517;-64
2021/09/19 10:42:25;;;;;;;3.85;3.22;;;;;;;;;;4864179;29;32454;-65
2021/09/19 10:45:14;;;;;;;4.07;3.67;;;;;;;;;;4849015;29;35846;-63
2021/09/19 10:47:44;;;;;;;5.88;3.95;;;;;;;;;;4846280;29;32470;-64
2021/09/19 10:50:21;;;;;;;5.05;4.20;;;;;;;;;;4846347;29;33405;-65
2021/09/19 10:52:51;;;;;;;7.00;3.97;;;;;;;;;;4845703;29;32252;-64
2021/09/19 10:55:28;;;;;;;5.93;4.40;;;;;;;;;;4846734;29;35135;-66
2021/09/19 10:57:59;;;;;;;6.10;4.38;;;;;;;;;;4843115;29;32413;-64
2021/09/19 11:00:29;;;;;;;6.38;4.78;;;;;;;;;;4597014;29;5002259;-67
2021/09/19 11:03:16;;;;;;;6.72;5.72;;;;;;;;;;4821930;29;32317;-64
2021/09/19 11:05:49;;;;;;;7.35;5.45;;;;;;;;;;4846538;29;32485;-63
2021/09/19 11:08:36;;;;;;;9.15;5.55;;;;;;;;;;4846892;29;34057;-64
2021/09/19 11:11:29;;;;;;;6.75;4.88;;;;;;;;;;4846484;29;32481;-64
2021/09/19 11:14:04;;;;;;;8.45;5.38;;;;;;;;;;4801820;29;32420;-64
2021/09/19 11:16:40;;;;;;;7.32;5.18;;;;;;;;;;4844713;29;32519;-64
2021/09/19 11:19:13;;;;;;;9.35;5.80;;;;;;;;;;4845716;29;34372;-64
2021/09/19 11:21:49;;;;;;;8.35;6.20;;;;;;;;;;4790307;29;32491;-64
2021/09/19 11:24:19;;;;;;;7.38;5.63;;;;;;;;;;4790991;29;32531;-65
2021/09/19 11:26:49;;;;;;;7.85;4.95;;;;;;;;;;4783150;29;33599;-64
2021/09/19 11:29:18;;;;;;;6.20;5.18;;;;;;;;;;4828557;29;33125;-65
2021/09/19 11:31:48;;;;;;;7.20;5.20;;;;;;;;;;4814666;29;36448;-64
2021/09/19 11:34:17;;;;;;;7.60;5.05;;;;;;;;;;4813756;29;32548;-65
2021/09/19 11:36:46;;;;;;;6.90;5.50;;;;;;;;;;4826674;29;32593;-65
2021/09/19 11:39:15;;;;;;;7.95;4.95;;;;;;;;;;4827998;29;32505;-67
2021/09/19 11:41:42;;;;;;;8.10;5.10;;;;;;;;;;4827820;29;34917;-67
2021/09/19 11:44:12;;;;;;;8.13;4.75;;;;;;;;;;4827511;29;32486;-64
2021/09/19 11:46:43;;;;;;;5.35;4.63;;;;;;;;;;4827480;29;32697;-65
2021/09/19 11:49:11;;;;;;;6.32;4.75;;;;;;;;;;4814836;29;32596;-64
2021/09/19 11:51:40;;;;;;;6.47;4.72;;;;;;;;;;4828552;29;32287;-64
2021/09/19 11:54:11;;;;;;;4.88;4.40;;;;;;;;;;4455461;29;10009084;-65
2021/09/19 11:56:40;;;;;;;5.93;4.43;;;;;;;;;;4854320;29;32492;-64
2021/09/19 11:59:11;;;;;;;7.18;4.18;;;;;;;;;;4860900;29;32385;-64
2021/09/19 12:01:40;;;;;;;6.35;4.15;;;;;;;;;;4861660;29;32532;-64
2021/09/19 12:04:10;;;;;;;7.00;4.60;;;;;;;;;;4861383;29;34162;-64
2021/09/19 12:06:38;;;;;;;9.57;4.63;;;;;;;;;;4864972;29;33009;-64
2021/09/19 12:09:10;;;;;;;7.40;4.05;;;;;;;;;;4863646;29;32706;-66
2021/09/19 12:11:42;;;;;;;6.00;4.47;;;;;;;;;;4860856;29;32548;-64
2021/09/19 12:14:14;;;;;;;6.60;4.28;;;;;;;;;;4598660;29;32763;-64
2021/09/19 12:16:41;;;;;;;6.32;3.85;;;;;;;;;;4826954;29;35280;-63
2021/09/19 12:19:19;;;;;;;;;;;;;;;;;;4827018;29;32490;-63
2021/09/19 12:21:55;;;;;;;6.93;3.72;;;;;;;;;;4826562;29;32446;-64
2021/09/19 12:24:22;;;;;;;7.13;4.32;;;;;;;;;;4826530;29;32529;-64
2021/09/19 12:26:49;;;;;;;5.65;3.88;;;;;;;;;;4826849;29;35836;-65
2021/09/19 12:29:16;;;;;;;5.80;3.60;;;;;;;;;;4826949;29;32763;-64
2021/09/19 12:31:45;;;;;;;5.05;4.03;;;;;;;;;;4823442;29;32727;-64
2021/09/19 12:34:14;;;;;;;4.55;3.42;;;;;;;;;;4842530;29;33538;-64
2021/09/19 12:36:45;;;;;;;3.67;3.25;;;;;;;;;;4827016;29;32444;-64
2021/09/19 12:39:15;;;;;;;5.55;3.40;;;;;;;;;;4844440;29;35661;-64
2021/09/19 12:41:44;;;;;;;4.50;3.55;;;;;;;;;;4845768;29;32930;-65
2021/09/19 12:44:16;;;;;;;5.18;3.47;;;;;;;;;;4826813;29;32653;-64
2021/09/19 12:46:47;;;;;;;4.40;3.20;;;;;;;;;;4864217;29;32784;-64
2021/09/19 12:49:22;;;;;;;5.20;3.22;;;;;;;;;;4864788;29;34164;-65
2021/09/19 12:52:06;;;;;;;5.18;3.25;;;;;;;;;;4867301;29;32609;-65
2021/09/19 12:54:33;;;;;;;5.13;3.45;;;;;;;;;;4862938;29;34575;-67
2021/09/19 12:56:59;;;;;;;4.72;3.75;;;;;;;;;;4866298;29;32535;-67
2021/09/19 12:59:26;;;;;;;5.00;3.55;;;;;;;;;;4865810;29;32349;-65
2021/09/19 13:01:52;;;;;;;5.25;4.75;;;;;;;;;;4865187;29;35377;-67
2021/09/19 13:04:19;;;;;;;4.70;3.30;;;;;;;;;;4862914;29;32539;-65
2021/09/19 13:06:46;;;;;;;4.22;2.78;;;;;;;;;;4857177;29;32419;-65
2021/09/19 13:09:13;;;;;;;;;;;;;;;;;;4848757;29;32435;-65
2021/09/19 13:11:40;;;;;;;5.80;3.22;;;;;;;;;;4847056;29;34787;-65
2021/09/19 13:14:06;;;;;;;5.50;3.20;;;;;;;;;;4867485;29;32125;-65
2021/09/19 13:16:33;;;;;;;4.50;3.25;;;;;;;;;;4866093;29;32323;-66
2021/09/19 13:19:01;;;;;;;4.60;4.13;;;;;;;;;;4865914;29;32393;-67
2021/09/19 13:21:27;;;;;;;5.25;3.45;;;;;;;;;;4866662;29;32531;-64
2021/09/19 13:23:54;;;;;;;5.25;2.70;;;;;;;;;;4864763;29;34685;-64
2021/09/19 13:26:22;;;;;;;4.25;2.70;;;;;;;;;;4859850;29;32653;-64
2021/09/19 13:28:48;;;;;;;4.10;3.30;;;;;;;;;;4846255;29;32564;-64
2021/09/19 13:31:14;;;;;;;4.82;3.35;;;;;;;;;;4856064;29;32410;-66
2021/09/19 13:33:41;;;;;;;3.63;2.80;;;;;;;;;;4866769;29;34136;-66
2021/09/19 13:36:07;;;;;;;4.75;3.22;;;;;;;;;;4819908;29;32642;-68
2021/09/19 13:38:35;;;;;;;5.72;3.30;;;;;;;;;;4810108;29;32394;-66
2021/09/19 13:41:02;;;;;;;5.20;3.03;;;;;;;;;;4834486;29;32459;-65
2021/09/19 13:43:30;;;;;;;4.43;2.97;;;;;;;;;;4865933;29;32536;-65
2021/09/19 13:45:58;;;;;;;4.25;2.95;;;;;;;;;;4865765;29;35566;-65
2021/09/19 13:48:24;;;;;;;4.25;3.33;;;;;;;;;;4866717;29;32217;-65
2021/09/19 13:50:51;;;;;;;5.70;3.33;;;;;;;;;;4867412;29;32642;-68
2021/09/19 13:53:17;;;;;;;4.07;2.83;;;;;;;;;;4865648;29;33650;-65
2021/09/19 13:55:46;;;;;;;5.47;2.95;;;;;;;;;;4864658;29;35610;-65
2021/09/19 13:58:13;;;;;;;4.72;3.05;;;;;;;;;;4866375;29;32676;-65
2021/09/19 14:00:41;;;;;;;3.60;2.92;;;;;;;;;;4865769;29;32504;-67
2021/09/19 14:03:08;;;;;;;4.32;2.80;;;;;;;;;;4855126;29;32225;-66
2021/09/19 14:06:46;;;;;;;6.57;3.78;;;;;;;;;;4224900;32;32806;-67
2021/09/19 14:09:13;;;;;;;4.30;3.50;;;;;;;;;;4764018;29;32645;-63
2021/09/19 14:11:39;;;;;;;;;;;;;;;;;;4835355;29;34218;-65
2021/09/19 14:14:06;;;;;;;;;;;;;;;;;;4832451;23;33716;-64
2021/09/19 14:16:33;;;;;;;5.80;4.10;;;;;;;;;;4764910;29;33956;-65
2021/09/19 14:19:01;;;;;;;6.75;4.45;;;;;;;;;;4766354;29;34262;-64
2021/09/19 14:21:28;;;;;;;6.70;4.82;;;;;;;;;;4780768;29;32591;-64
2021/09/19 14:23:59;;;;;;;7.88;4.22;;;;;;;;;;4803587;29;34189;-65
2021/09/19 14:26:26;;;;;;;6.80;3.63;;;;;;;;;;4761063;24;34563;-65
2021/09/19 14:28:53;;;;;;;5.88;4.35;;;;;;;;;;4766088;29;33652;-65
2021/09/19 14:31:20;;;;;;;7.30;4.47;;;;;;;;;;4787412;29;32529;-66
2021/09/19 14:33:46;;;;;;;8.68;5.32;;;;;;;;;;4775742;29;35543;-65
2021/09/19 14:36:13;;;;;;;7.95;5.13;;;;;;;;;;4778298;29;32548;-67
2021/09/19 14:38:40;;;;;;;7.05;5.70;;;;;;;;;;4779676;29;33691;-64
2021/09/19 14:41:07;;;;;;;8.52;4.90;;;;;;;;;;4768997;29;32760;-67
2021/09/19 14:43:37;;;;;;;8.45;4.95;;;;;;;;;;4796415;29;33646;-66
2021/09/19 14:46:04;;;;;;;8.07;5.15;;;;;;;;;;4787048;29;35470;-65
2021/09/19 14:48:31;;;;;;;8.27;5.50;;;;;;;;;;4790000;29;33270;-66
2021/09/19 14:50:58;;;;;;;7.50;4.97;;;;;;;;;;4797035;29;34175;-66
2021/09/19 14:53:24;;;;;;;10.50;5.20;;;;;;;;;;4760024;29;33835;-65